Time;durP1;ratioP1;P1;durP2;ratioP2;P2;SDS_P1;SDS_P2;PMS_P1;PMS_P2;Temp;Humidity;BMP_temperature;BMP_pressure;BME280_temperature;BME280_humidity;BME280_pressure;Samples;Min_cycle;Max_cycle;Signal;HPM_P1;HPM_P2
2022/02/07 00:02:08;;;;;;;0.50;0.50;;;6.90;99.90;;;;;;5159330;28;20068;-39
2022/02/07 00:04:41;;;;;;;0.43;0.43;;;7.00;99.90;;;;;;5161197;28;20057;-39
2022/02/07 00:07:17;;;;;;;0.47;0.47;;;7.40;99.90;;;;;;5158923;28;20639;-39
2022/02/07 00:09:49;;;;;;;0.60;0.40;;;6.80;99.90;;;;;;5160650;28;20399;-40
2022/02/07 00:12:22;;;;;;;0.35;0.30;;;7.20;99.90;;;;;;5158165;28;20038;-40
2022/02/07 00:14:55;;;;;;;0.55;0.55;;;;;;;;;;5154222;28;20054;-39
2022/02/07 00:17:27;;;;;;;4.80;0.50;;;8.90;99.90;;;;;;5155256;28;20505;-39
2022/02/07 00:20:02;;;;;;;1.15;0.40;;;9.60;99.90;;;;;;5157409;28;20062;-39
2022/02/07 00:22:35;;;;;;;1.70;0.47;;;4.70;99.90;;;;;;5154825;28;20049;-39
2022/02/07 00:25:08;;;;;;;0.80;0.57;;;5.70;99.90;;;;;;5152016;28;20065;-40
2022/02/07 00:27:41;;;;;;;3.75;0.45;;;;;;;;;;5150286;28;20049;-42
2022/02/07 00:30:16;;;;;;;2.63;0.50;;;3.60;99.90;;;;;;5160623;28;20057;-39
2022/02/07 00:32:49;;;;;;;0.20;0.20;;;6.70;99.90;;;;;;5176610;28;20233;-42
2022/02/07 00:35:23;;;;;;;0.65;0.43;;;4.70;99.90;;;;;;5147158;28;20058;-38
2022/02/07 00:37:58;;;;;;;0.40;0.40;;;4.10;99.90;;;;;;5174210;28;20053;-42
2022/02/07 00:40:44;;;;;;;1.15;0.50;;;4.60;99.90;;;;;;5161803;28;20105;-38
2022/02/07 00:46:08;;;;;;;0.40;0.40;;;2.90;99.90;;;;;;5146222;28;20053;-41
2022/02/07 00:48:41;;;;;;;0.50;0.50;;;4.00;99.90;;;;;;5151492;28;20495;-39
2022/02/07 00:51:16;;;;;;;0.40;0.40;;;5.00;99.90;;;;;;5150507;28;20872;-40
2022/02/07 00:53:48;;;;;;;0.60;0.60;;;3.50;99.90;;;;;;5155772;28;20781;-39
2022/02/07 00:56:21;;;;;;;0.80;0.60;;;3.90;99.90;;;;;;5150860;28;20034;-41
2022/02/07 00:58:54;;;;;;;0.40;0.40;;;3.50;99.90;;;;;;5154429;28;20038;-40
2022/02/07 01:01:27;;;;;;;0.30;0.30;;;3.40;99.90;;;;;;5151250;28;20056;-38
2022/02/07 01:04:00;;;;;;;0.50;0.50;;;4.10;99.90;;;;;;5168040;28;20042;-39
2022/02/07 01:06:41;;;;;;;0.30;0.30;;;4.80;99.90;;;;;;5162985;28;20513;-39
2022/02/07 01:09:30;;;;;;;0.45;0.45;;;3.30;99.90;;;;;;5148975;28;20048;-39
2022/02/07 01:12:11;;;;;;;0.50;0.50;;;5.00;99.90;;;;;;5155389;28;20059;-41
2022/02/07 01:23:24;;;;;;;0.30;0.28;;;2.90;99.90;;;;;;5154539;28;20197;-37
2022/02/07 01:55:00;;;;;;;1.85;0.40;;;5.60;99.90;;;;;;5155709;28;20057;-38
2022/02/07 01:57:33;;;;;;;0.35;0.35;;;1.30;99.90;;;;;;5168723;28;20053;-38
2022/02/07 02:00:08;;;;;;;0.43;0.43;;;5.10;99.90;;;;;;5145285;28;20049;-37
2022/02/07 02:02:48;;;;;;;1.10;0.50;;;;;;;;;;5157342;28;20057;-39
2022/02/07 02:05:37;;;;;;;0.40;0.40;;;3.50;99.90;;;;;;5146271;28;20042;-39
2022/02/07 02:08:16;;;;;;;0.52;0.47;;;4.30;99.90;;;;;;5157606;28;20487;-38
2022/02/07 02:10:57;;;;;;;1.70;0.40;;;2.80;99.90;;;;;;5149009;28;20060;-38
2022/02/07 02:13:51;;;;;;;1.98;0.45;;;3.90;99.90;;;;;;5147242;28;20715;-38
2022/02/07 02:20:11;;;;;;;0.75;0.60;;;2.30;99.90;;;;;;5086564;28;20052;-41
2022/02/07 02:37:30;;;;;;;0.50;0.50;;;2.70;99.90;;;;;;5146585;28;20054;-49
2022/02/07 02:47:53;;;;;;;0.60;0.60;;;5.00;99.90;;;;;;5141211;28;20388;-41
2022/02/07 02:50:35;;;;;;;0.90;0.60;;;2.50;99.90;;;;;;5157150;28;20042;-41
2022/02/07 02:53:12;;;;;;;2.22;0.50;;;2.60;99.90;;;;;;5141329;28;20050;-44
2022/02/07 02:55:47;;;;;;;0.75;0.75;;;2.00;99.90;;;;;;5148307;28;20194;-40
2022/02/07 02:58:21;;;;;;;0.98;0.70;;;4.10;99.90;;;;;;5143242;28;20387;-40
2022/02/07 03:00:59;;;;;;;0.55;0.50;;;;;;;;;;5144081;28;20771;-43
2022/02/07 03:03:42;;;;;;;1.20;0.70;;;;;;;;;;5142971;28;20794;-43
2022/02/07 03:06:15;;;;;;;1.70;0.50;;;;;;;;;;5149297;28;20050;-44
2022/02/07 03:08:48;;;;;;;0.60;0.50;;;2.90;99.90;;;;;;5151060;28;20046;-41
2022/02/07 03:11:24;;;;;;;0.40;0.40;;;;;;;;;;5163647;28;20034;-46
2022/02/07 03:14:03;;;;;;;0.43;0.43;;;;;;;;;;5153280;28;20057;-42
2022/02/07 03:17:04;;;;;;;1.63;0.35;;;;;;;;;;5147139;28;20482;-43
2022/02/07 03:19:37;;;;;;;0.60;0.60;;;4.10;99.90;;;;;;5154837;28;20534;-40
2022/02/07 03:22:10;;;;;;;1.95;1.48;;;;;;;;;;5157137;28;20326;-42
2022/02/07 03:24:43;;;;;;;0.55;0.50;;;;;;;;;;5159685;28;20057;-41
2022/02/07 03:27:23;;;;;;;0.55;0.52;;;4.60;99.90;;;;;;5152610;28;20053;-43
2022/02/07 03:30:01;;;;;;;0.50;0.50;;;6.10;99.90;;;;;;5170087;28;20054;-42
2022/02/07 03:32:44;;;;;;;0.90;0.63;;;;;;;;;;5163389;28;20034;-42
2022/02/07 03:35:20;;;;;;;0.65;0.52;;;;;;;;;;5160452;28;20046;-40
2022/02/07 03:37:53;;;;;;;0.98;0.57;;;;;;;;;;5166606;28;20046;-43
2022/02/07 03:40:27;;;;;;;0.50;0.50;;;3.90;99.90;;;;;;5150101;28;20060;-41
2022/02/07 03:43:00;;;;;;;1.02;0.50;;;;;;;;;;5155918;28;20050;-43
2022/02/07 03:45:33;;;;;;;0.63;0.60;;;;;;;;;;5145023;28;20045;-46
2022/02/07 03:48:12;;;;;;;2.20;0.70;;;;;;;;;;5144709;28;20050;-43
2022/02/07 03:50:45;;;;;;;0.30;0.30;;;;;;;;;;5148426;28;20049;-43
2022/02/07 03:53:22;;;;;;;0.82;0.50;;;3.20;99.90;;;;;;5149456;28;20042;-41
2022/02/07 03:56:04;;;;;;;0.60;0.60;;;3.10;99.90;;;;;;5150549;28;20046;-44
2022/02/07 03:58:39;;;;;;;0.57;0.55;;;;;;;;;;5151034;28;20414;-45
2022/02/07 04:01:14;;;;;;;3.50;0.70;;;;;;;;;;5152571;28;20629;-43
2022/02/07 04:03:51;;;;;;;1.65;0.60;;;;;;;;;;5147120;28;20053;-43
2022/02/07 04:06:25;;;;;;;0.63;0.63;;;;;;;;;;5146778;28;20523;-43
2022/02/07 04:09:16;;;;;;;0.65;0.50;;;;;;;;;;5135527;28;20053;-42
2022/02/07 04:12:00;;;;;;;0.60;0.60;;;;;;;;;;5143832;28;20054;-43
2022/02/07 04:14:34;;;;;;;0.70;0.70;;;;;;;;;;5151878;28;20050;-42
2022/02/07 04:17:26;;;;;;;1.27;0.75;;;;;;;;;;5164556;28;20725;-42
2022/02/07 04:20:03;;;;;;;2.30;0.70;;;;;;;;;;5147161;28;20371;-43
2022/02/07 04:22:47;;;;;;;1.00;0.70;;;3.50;99.90;;;;;;5137850;28;21119;-41
2022/02/07 04:25:37;;;;;;;2.03;0.47;;;;;;;;;;5130165;28;20210;-46
2022/02/07 04:28:18;;;;;;;1.52;0.60;;;3.20;99.90;;;;;;5137440;28;20054;-41
2022/02/07 04:30:52;;;;;;;2.53;0.90;;;;;;;;;;5143570;28;20522;-45
2022/02/07 04:33:26;;;;;;;1.88;0.70;;;;;;;;;;5138183;28;20045;-43
2022/02/07 04:35:59;;;;;;;3.05;0.75;;;;;;;;;;5144875;28;20612;-45
2022/02/07 04:38:32;;;;;;;1.65;0.70;;;;;;;;;;5140084;28;20061;-43
2022/02/07 04:41:08;;;;;;;0.75;0.70;;;;;;;;;;5153772;28;20495;-44
2022/02/07 04:43:48;;;;;;;1.90;1.00;;;;;;;;;;5151644;28;20530;-42
2022/02/07 04:52:02;;;;;;;1.05;0.75;;;;;;;;;;5150478;28;20056;-43
2022/02/07 05:00:03;;;;;;;3.88;1.00;;;;;;;;;;5140557;28;20081;-41
2022/02/07 05:03:02;;;;;;;1.98;0.90;;;;;;;;;;5138602;28;20410;-42
2022/02/07 05:13:49;;;;;;;4.72;1.45;;;;;;;;;;5132077;28;20038;-47
2022/02/07 05:16:30;;;;;;;2.65;1.20;;;;;;;;;;5150414;28;20100;-42
2022/02/07 05:19:16;;;;;;;2.08;1.08;;;;;;;;;;5147660;28;20064;-45
2022/02/07 05:21:48;;;;;;;1.83;0.98;;;;;;;;;;5129678;28;20046;-42
2022/02/07 05:24:30;;;;;;;2.08;1.00;;;;;;;;;;5139140;28;20046;-47
2022/02/07 05:27:03;;;;;;;5.03;1.30;;;;;;;;;;5139292;28;20235;-45
2022/02/07 05:29:38;;;;;;;2.50;0.93;;;;;;;;;;5131817;28;20301;-45
2022/02/07 05:32:30;;;;;;;3.25;1.27;;;;;;;;;;5131496;28;20553;-44
2022/02/07 05:35:21;;;;;;;3.30;1.20;;;;;;;;;;5138310;28;20116;-43
2022/02/07 05:38:18;;;;;;;9.07;1.40;;;;;;;;;;5141753;28;20046;-44
2022/02/07 05:41:19;;;;;;;1.88;1.27;;;;;;;;;;5133174;28;20073;-43
2022/02/07 05:44:03;;;;;;;4.63;1.20;;;;;;;;;;5141156;28;20050;-46
2022/02/07 05:46:56;;;;;;;2.38;1.40;;;;;;;;;;5157560;23;20046;-81
2022/02/07 05:49:47;;;;;;;3.53;1.35;;;;;;;;;;5170367;28;20541;-79
2022/02/07 05:52:45;;;;;;;3.90;1.48;;;;;;;;;;5160972;28;20060;-76
2022/02/07 05:55:31;;;;;;;7.15;1.95;;;;;;;;;;5173889;28;20048;-76
2022/02/07 05:58:24;;;;;;;4.15;1.30;;;;;;;;;;5173010;28;20045;-76
2022/02/07 06:01:18;;;;;;;5.45;1.52;;;;;;;;;;5175775;22;20060;-32
2022/02/07 06:03:51;;;;;;;5.50;1.58;;;;;;;;;;5158217;28;20053;-31
2022/02/07 06:06:24;;;;;;;7.47;1.30;;;;;;;;;;5153790;28;20053;-31
2022/02/07 06:08:58;;;;;;;2.63;1.00;;;;;;;;;;5133005;28;20045;-30
2022/02/07 06:11:31;;;;;;;4.03;1.27;;;;;;;;;;5153415;28;20060;-29
2022/02/07 06:14:04;;;;;;;7.38;2.45;;;;;;;;;;5187476;23;20041;-89
2022/02/07 06:16:37;;;;;;;3.35;1.23;;;;;;;;;;5171172;28;20068;-93
2022/02/07 06:19:13;;;;;;;8.32;1.25;;;2.50;99.90;;;;;;5177079;28;20049;-92
2022/02/07 06:21:48;;;;;;;2.33;1.20;;;;;;;;;;5137584;28;20061;-92
2022/02/07 06:24:30;;;;;;;4.55;1.65;;;;;;;;;;5142547;28;20057;-92
2022/02/07 06:27:04;;;;;;;5.72;1.50;;;;;;;;;;5148261;28;20053;-93
2022/02/07 06:29:39;;;;;;;1.08;0.90;;;;;;;;;;5168578;28;20061;-90
2022/02/07 06:32:14;;;;;;;2.15;1.20;;;;;;;;;;5159894;28;20053;-92
2022/02/07 06:34:50;;;;;;;2.75;1.30;;;;;;;;;;5168920;28;20044;-91
2022/02/07 06:37:23;;;;;;;4.25;1.48;;;;;;;;;;5190219;28;20049;-91
2022/02/07 06:39:56;;;;;;;;;;;2.20;99.90;;;;;;5164938;28;20056;-90
2022/02/07 06:42:29;;;;;;;2.63;1.40;;;;;;;;;;5197676;28;19925;-91
2022/02/07 06:45:10;;;;;;;2.50;1.75;;;2.20;99.90;;;;;;5186295;28;20068;-92
2022/02/07 06:47:46;;;;;;;2.60;1.40;;;;;;;;;;5192339;28;20065;-90
2022/02/07 06:50:24;;;;;;;1.92;1.70;;;;;;;;;;5163266;28;20045;-89
2022/02/07 06:53:01;;;;;;;3.45;1.50;;;;;;;;;;5178593;28;20061;-92
2022/02/07 06:55:39;;;;;;;4.60;1.88;;;;;;;;;;5160020;28;20057;-92
2022/02/07 06:58:17;;;;;;;3.60;1.45;;;;;;;;;;5154958;28;20057;-91
2022/02/07 07:00:52;;;;;;;2.45;1.60;;;;;;;;;;5186698;28;20049;-92
2022/02/07 07:03:45;;;;;;;10.82;1.88;;;2.10;99.90;;;;;;5199197;28;20337;-92
2022/02/07 07:06:21;;;;;;;3.90;1.63;;;;;;;;;;5165269;28;20055;-91
2022/02/07 07:09:00;;;;;;;6.40;1.80;;;;;;;;;;5160326;28;20046;-91
2022/02/07 07:11:34;;;;;;;3.92;1.70;;;;;;;;;;5180777;28;20430;-91
2022/02/07 07:14:29;;;;;;;4.07;1.80;;;;;;;;;;5171017;28;20062;-91
2022/02/07 07:17:06;;;;;;;3.88;2.10;;;;;;;;;;5193877;28;20421;-91
2022/02/07 07:19:48;;;;;;;6.00;1.85;;;;;;;;;;5177833;28;20045;-92
2022/02/07 07:22:30;;;;;;;6.57;1.88;;;;;;;;;;5181146;28;20654;-92
2022/02/07 07:25:06;;;;;;;7.43;2.10;;;;;;;;;;5165156;28;20424;-91
2022/02/07 07:27:55;;;;;;;5.97;2.03;;;;;;;;;;5174469;28;20061;-91
2022/02/07 07:30:32;;;;;;;6.57;1.90;;;2.40;99.90;;;;;;5195078;28;20399;-91
2022/02/07 07:33:11;;;;;;;3.25;1.80;;;;;;;;;;5196459;28;20060;-91
2022/02/07 07:35:45;;;;;;;4.53;2.28;;;;;;;;;;5163141;28;20056;-91
2022/02/07 07:38:18;;;;;;;6.47;2.15;;;;;;;;;;5184063;28;20051;-92
2022/02/07 07:40:53;;;;;;;5.57;2.60;;;;;;;;;;5195134;28;20053;-91
2022/02/07 07:43:32;;;;;;;4.70;2.30;;;;;;;;;;5190443;28;20056;-90
2022/02/07 07:46:27;;;;;;;9.98;2.42;;;;;;;;;;5174261;28;20052;-91
2022/02/07 07:49:38;;;;;;;6.28;1.98;;;;;;;;;;5176692;28;20052;-89
2022/02/07 07:53:00;;;;;;;6.28;2.13;;;;;;;;;;5229789;28;20070;-90
2022/02/07 08:01:51;;;;;;;6.47;2.00;;;;;;;;;;5194358;28;20049;-90
2022/02/07 08:04:29;;;;;;;;;;;2.60;99.90;;;;;;5179226;28;20056;-91
2022/02/07 08:07:11;;;;;;;5.05;2.00;;;;;;;;;;5190100;28;20439;-90
2022/02/07 08:10:07;;;;;;;9.00;2.15;;;;;;;;;;5176315;28;20274;-92
2022/02/07 08:12:51;;;;;;;12.57;2.03;;;;;;;;;;5215006;28;20536;-92
2022/02/07 08:15:24;;;;;;;8.27;1.93;;;;;;;;;;5172824;28;20417;-91
2022/02/07 08:17:57;;;;;;;12.23;2.38;;;;;;;;;;5174193;28;20314;-91
2022/02/07 08:20:30;;;;;;;7.93;2.30;;;;;;;;;;5187731;28;20057;-92
2022/02/07 08:23:04;;;;;;;7.45;2.35;;;2.70;99.90;;;;;;5174453;28;20304;-91
2022/02/07 08:25:37;;;;;;;10.13;2.00;;;;;;;;;;5193621;28;20049;-90
2022/02/07 08:28:10;;;;;;;9.40;2.20;;;;;;;;;;5158693;28;20057;-91
2022/02/07 08:30:43;;;;;;;4.90;2.20;;;;;;;;;;5177472;28;20489;-89
2022/02/07 08:33:16;;;;;;;4.93;2.28;;;;;;;;;;5173815;28;20057;-90
2022/02/07 08:35:49;;;;;;;9.40;2.10;;;;;;;;;;5178673;28;20053;-91
2022/02/07 08:38:29;;;;;;;8.05;1.92;;;;;;;;;;5173936;28;21356;-90
2022/02/07 08:41:02;;;;;;;8.40;2.28;;;;;;;;;;5166714;28;20056;-91
2022/02/07 08:43:35;;;;;;;13.07;2.80;;;;;;;;;;5196425;28;20044;-89
2022/02/07 08:46:08;;;;;;;5.78;2.92;;;;;;;;;;5167936;28;20304;-93
2022/02/07 08:48:41;;;;;;;10.20;2.38;;;;;;;;;;5167062;28;20354;-91
2022/02/07 08:51:16;;;;;;;8.88;2.25;;;2.70;99.90;;;;;;5163306;28;20051;-90
2022/02/07 08:53:51;;;;;;;4.72;2.13;;;2.60;99.90;;;;;;5158733;28;20053;-89
2022/02/07 08:56:37;;;;;;;9.00;2.45;;;;;;;;;;5183643;28;20059;-90
2022/02/07 08:59:12;;;;;;;10.48;2.72;;;;;;;;;;5205036;28;20049;-91
2022/02/07 09:02:04;;;;;;;5.65;2.28;;;;;;;;;;5167402;28;20045;-90
2022/02/07 09:05:11;;;;;;;7.78;2.40;;;;;;;;;;5169182;28;20632;-90
2022/02/07 09:08:49;;;;;;;11.13;3.33;;;;;;;;;;5197106;28;20529;-91
2022/02/07 09:10:40;;;;;;;7.50;2.38;;;;;;;;;;4476692;28;9999900;-91
2022/02/07 09:13:13;;;;;;;7.60;2.35;;;;;;;;;;5187885;28;20049;-92
2022/02/07 09:16:04;;;;;;;9.90;2.08;;;;;;;;;;5172651;28;20072;-90
2022/02/07 09:18:38;;;;;;;8.88;2.20;;;2.80;99.90;;;;;;5221001;28;20056;-89
2022/02/07 09:21:12;;;;;;;10.77;2.50;;;;;;;;;;5180564;28;20496;-91
2022/02/07 09:23:45;;;;;;;10.02;2.58;;;;;;;;;;5179344;28;20036;-90
2022/02/07 09:26:18;;;;;;;8.40;2.97;;;;;;;;;;5174343;28;20595;-90
2022/02/07 09:28:51;;;;;;;7.37;2.60;;;;;;;;;;5176372;28;20048;-91
2022/02/07 09:31:24;;;;;;;6.97;2.50;;;;;;;;;;5187052;28;20272;-90
2022/02/07 09:33:57;;;;;;;6.07;2.60;;;;;;;;;;5193899;28;20052;-90
2022/02/07 09:36:29;;;;;;;5.93;2.57;;;;;;;;;;5171156;28;20076;-90
2022/02/07 09:39:02;;;;;;;9.57;2.28;;;2.90;99.90;;;;;;5172034;28;20057;-90
2022/02/07 09:41:36;;;;;;;6.63;2.22;;;;;;;;;;5186009;28;20050;-90
2022/02/07 09:44:10;;;;;;;16.88;4.15;;;2.90;99.90;;;;;;5154308;28;20056;-91
2022/02/07 09:46:46;;;;;;;13.57;2.25;;;2.90;99.90;;;;;;5185279;28;20144;-89
2022/02/07 09:49:19;;;;;;;9.23;2.35;;;;;;;;;;5165023;28;20618;-92
2022/02/07 09:51:53;;;;;;;10.35;2.05;;;;;;;;;;5177497;28;20061;-91
2022/02/07 09:54:26;;;;;;;13.75;2.35;;;;;;;;;;5210734;28;20054;-91
2022/02/07 09:57:03;;;;;;;11.45;2.65;;;;;;;;;;5206591;28;20446;-90
2022/02/07 09:59:36;;;;;;;8.70;2.53;;;;;;;;;;5173476;28;20048;-92
2022/02/07 10:02:27;;;;;;;13.63;2.22;;;3.00;99.90;;;;;;5188328;28;20519;-92
2022/02/07 10:05:04;;;;;;;12.15;2.22;;;;;;;;;;5151822;28;20049;-89
2022/02/07 10:07:57;;;;;;;10.85;2.33;;;;;;;;;;5178373;28;20060;-90
2022/02/07 10:16:02;;;;;;;8.65;2.33;;;;;;;;;;5188184;28;20041;-90
2022/02/07 10:18:45;;;;;;;7.45;2.25;;;;;;;;;;5191229;28;20049;-89
2022/02/07 10:21:34;;;;;;;12.65;2.53;;;;;;;;;;5174514;28;20048;-88
2022/02/07 10:36:35;;;;;;;8.32;2.90;;;3.10;99.90;;;;;;5161704;28;20054;-41
2022/02/07 10:39:28;;;;;;;6.53;2.10;;;;;;;;;;5157007;28;20042;-42
2022/02/07 10:45:08;;;;;;;10.48;2.35;;;3.10;99.90;;;;;;5133036;28;20054;-44
2022/02/07 10:47:44;;;;;;;8.23;2.10;;;3.10;99.90;;;;;;5152193;28;21077;-45
2022/02/07 10:50:18;;;;;;;5.90;2.10;;;;;;;;;;5176818;28;20064;-41
2022/02/07 10:52:53;;;;;;;14.80;2.65;;;3.10;99.90;;;;;;5162663;28;20054;-42
2022/02/07 10:55:35;;;;;;;7.28;2.13;;;3.20;99.90;;;;;;5162175;28;20046;-42
2022/02/07 10:58:08;;;;;;;6.75;1.92;;;;;;;;;;5164444;28;20072;-44
2022/02/07 11:00:53;;;;;;;9.13;2.10;;;;;;;;;;5166897;28;20038;-43
2022/02/07 11:03:29;;;;;;;9.48;2.70;;;;;;;;;;5162809;28;20087;-40
2022/02/07 11:06:04;;;;;;;7.15;2.40;;;;;;;;;;5164483;28;20061;-40
2022/02/07 11:08:48;;;;;;;9.90;2.60;;;;;;;;;;5161563;28;20389;-42
2022/02/07 11:25:24;;;;;;;13.43;2.40;;;3.10;99.90;;;;;;5160491;28;20640;-45
2022/02/07 11:28:00;;;;;;;7.78;2.58;;;;;;;;;;5153057;28;20050;-44
2022/02/07 11:30:35;;;;;;;7.90;2.28;;;3.10;99.90;;;;;;5138502;28;20085;-41
2022/02/07 11:33:38;;;;;;;6.78;2.67;;;3.30;99.90;;;;;;5155986;28;20054;-43
2022/02/07 11:36:21;;;;;;;12.75;2.92;;;3.30;99.90;;;;;;5158618;28;20332;-40
2022/02/07 11:39:04;;;;;;;13.10;2.45;;;3.30;99.90;;;;;;5150208;28;20046;-42
2022/02/07 11:41:55;;;;;;;8.57;2.80;;;3.30;99.90;;;;;;5154910;28;20042;-44
2022/02/07 11:44:43;;;;;;;7.20;1.75;;;3.30;99.90;;;;;;5150359;28;20050;-46
2022/02/07 11:47:28;;;;;;;8.95;2.97;;;3.20;99.90;;;;;;4809098;28;10000079;-44
2022/02/07 11:50:07;;;;;;;7.38;2.10;;;3.30;99.90;;;;;;5151668;28;20521;-41
2022/02/07 11:52:45;;;;;;;5.25;1.80;;;;;;;;;;5150630;28;20495;-43
2022/02/07 11:55:23;;;;;;;9.23;2.35;;;3.20;99.90;;;;;;5151952;28;20069;-42
2022/02/07 11:58:01;;;;;;;13.20;3.33;;;3.30;99.90;;;;;;5154686;28;20049;-42
2022/02/07 12:00:43;;;;;;;6.88;1.98;;;3.40;99.90;;;;;;5165530;28;20562;-43
2022/02/07 12:03:17;;;;;;;10.30;2.30;;;3.20;99.90;;;;;;5162619;28;20053;-41
2022/02/07 12:05:52;;;;;;;7.18;2.33;;;3.20;99.90;;;;;;5160200;28;20041;-44
2022/02/07 12:08:27;;;;;;;7.82;2.05;;;3.30;99.90;;;;;;5165609;28;20061;-41
2022/02/07 12:11:02;;;;;;;8.25;2.15;;;3.30;99.90;;;;;;5169279;28;20051;-42
2022/02/07 12:13:43;;;;;;;6.32;1.70;;;3.30;99.90;;;;;;5165730;28;20046;-44
2022/02/07 12:16:20;;;;;;;7.90;2.22;;;3.40;99.90;;;;;;5166765;28;20050;-44
2022/02/07 12:19:14;;;;;;;12.68;2.45;;;3.40;99.90;;;;;;5157793;28;20034;-44
2022/02/07 12:21:56;;;;;;;6.47;2.50;;;3.40;99.90;;;;;;5159863;28;20490;-44
2022/02/07 12:24:55;;;;;;;11.38;2.22;;;3.40;99.90;;;;;;5148138;28;20644;-44
2022/02/07 12:27:29;;;;;;;8.98;2.03;;;;;;;;;;5168479;28;20050;-43
2022/02/07 12:30:28;;;;;;;;;;;3.30;99.90;;;;;;5206477;23;20501;-32
2022/02/07 12:33:05;;;;;;;7.00;2.30;;;3.30;99.90;;;;;;5212166;28;20352;-31
2022/02/07 12:35:57;;;;;;;4.10;2.00;;;;;;;;;;5207603;28;20306;-32
2022/02/07 12:38:33;;;;;;;7.53;1.73;;;3.40;99.90;;;;;;5229619;28;20124;-31
2022/02/07 12:41:11;;;;;;;7.53;2.08;;;3.40;99.90;;;;;;5221765;28;20033;-31
2022/02/07 12:43:45;;;;;;;13.20;2.47;;;3.40;99.90;;;;;;5224816;28;20487;-32
2022/02/07 12:46:21;;;;;;;11.45;2.42;;;3.30;99.90;;;;;;5220276;28;20076;-32
2022/02/07 12:48:59;;;;;;;10.60;2.15;;;;;;;;;;5223335;28;20067;-32
2022/02/07 12:51:42;;;;;;;7.78;2.13;;;3.40;99.90;;;;;;5204289;28;20056;-31
2022/02/07 12:54:18;;;;;;;6.05;2.28;;;3.30;99.90;;;;;;5214296;28;20079;-31
2022/02/07 12:56:51;;;;;;;13.73;2.58;;;;;;;;;;5224324;28;20045;-32
2022/02/07 12:59:25;;;;;;;11.63;2.40;;;;;;;;;;5214409;28;20409;-32
2022/02/07 13:01:57;;;;;;;10.93;2.50;;;;;;;;;;5217935;28;20043;-32
2022/02/07 13:04:30;;;;;;;9.68;2.67;;;;;;;;;;5222163;28;20052;-31
2022/02/07 13:07:06;;;;;;;10.27;2.57;;;;;;;;;;5221721;28;20056;-30
2022/02/07 13:09:50;;;;;;;8.10;2.90;;;;;;;;;;5220212;28;21005;-32
2022/02/07 13:12:51;;;;;;;10.02;2.58;;;;;;;;;;5226799;28;20153;-32
2022/02/07 13:15:26;;;;;;;9.68;2.97;;;3.30;99.90;;;;;;5226688;28;20048;-33
2022/02/07 13:18:06;;;;;;;14.32;2.95;;;;;;;;;;5222444;28;20507;-31
2022/02/07 13:20:45;;;;;;;8.57;3.03;;;3.20;99.90;;;;;;5223285;28;20048;-32
2022/02/07 13:23:19;;;;;;;7.93;2.83;;;3.20;99.90;;;;;;5214075;28;20049;-31
2022/02/07 13:25:54;;;;;;;12.30;3.22;;;3.20;99.90;;;;;;5219351;28;20050;-31
2022/02/07 13:28:31;;;;;;;8.45;3.05;;;3.20;99.90;;;;;;5209312;28;20660;-31
2022/02/07 13:31:05;;;;;;;9.00;3.55;;;;;;;;;;5204211;28;20052;-31
2022/02/07 13:33:52;;;;;;;10.95;3.40;;;3.20;99.90;;;;;;5214336;28;20048;-32
2022/02/07 13:36:48;;;;;;;11.52;3.08;;;3.20;99.90;;;;;;5217597;28;20670;-31
2022/02/07 13:39:21;;;;;;;13.23;3.17;;;;;;;;;;5211723;28;20048;-32
2022/02/07 13:42:07;;;;;;;12.25;3.58;;;3.20;99.90;;;;;;5204307;28;20040;-31
2022/02/07 13:44:42;;;;;;;6.18;3.17;;;3.20;99.90;;;;;;5202663;28;20056;-31
2022/02/07 13:47:15;;;;;;;5.05;3.08;;;;;;;;;;5208295;28;20330;-32
2022/02/07 13:50:11;;;;;;;8.67;3.30;;;3.30;99.90;;;;;;5198255;28;20079;-32
2022/02/07 13:52:45;;;;;;;7.53;3.20;;;3.30;99.90;;;;;;5202785;28;20303;-32
2022/02/07 13:55:35;;;;;;;8.23;3.13;;;3.20;99.90;;;;;;5212311;28;20056;-31
2022/02/07 13:58:14;;;;;;;9.02;3.53;;;3.30;99.90;;;;;;5214892;28;20041;-37
2022/02/07 14:00:50;;;;;;;9.20;3.15;;;3.30;99.90;;;;;;5199712;28;20059;-32
2022/02/07 14:03:30;;;;;;;9.88;3.40;;;3.30;99.90;;;;;;5213620;28;20040;-31
2022/02/07 14:06:15;;;;;;;11.48;3.83;;;3.20;99.90;;;;;;5211401;28;20073;-32
2022/02/07 14:08:57;;;;;;;11.63;3.22;;;3.30;99.90;;;;;;5196429;28;20430;-32
2022/02/07 14:11:31;;;;;;;11.98;4.43;;;3.20;99.90;;;;;;5191977;28;20052;-31
2022/02/07 14:14:09;;;;;;;14.40;2.95;;;;;;;;;;5176435;28;20261;-31
2022/02/07 14:16:42;;;;;;;7.33;2.83;;;;;;;;;;5162263;28;20060;-32
2022/02/07 14:19:16;;;;;;;12.23;3.30;;;;;;;;;;5200986;28;20303;-30
2022/02/07 14:21:49;;;;;;;10.50;3.55;;;;;;;;;;5204486;28;20175;-32
2022/02/07 14:24:22;;;;;;;9.05;3.33;;;;;;;;;;5201563;28;20591;-33
2022/02/07 14:27:15;;;;;;;12.80;2.67;;;;;;;;;;5197650;28;20082;-31
2022/02/07 14:29:48;;;;;;;8.07;3.08;;;;;;;;;;5178193;28;20048;-31
2022/02/07 14:32:25;;;;;;;8.52;2.70;;;;;;;;;;5205914;28;20055;-32
2022/02/07 14:34:58;;;;;;;10.38;3.50;;;;;;;;;;5192949;28;20533;-32
2022/02/07 14:37:31;;;;;;;12.73;3.63;;;;;;;;;;5200900;28;20063;-32
2022/02/07 14:40:04;;;;;;;12.48;3.15;;;;;;;;;;5206555;28;20821;-32
2022/02/07 14:42:37;;;;;;;6.17;3.20;;;;;;;;;;5201073;28;20053;-31
2022/02/07 14:45:16;;;;;;;7.53;2.90;;;;;;;;;;5189804;28;20703;-32
2022/02/07 14:50:23;;;;;;;7.38;3.58;;;3.30;99.90;;;;;;5199140;28;20092;-33
2022/02/07 14:52:56;;;;;;;6.90;3.65;;;3.30;99.90;;;;;;5204565;28;20053;-32
2022/02/07 14:55:29;;;;;;;13.00;3.08;;;;;;;;;;5198483;28;20053;-33
2022/02/07 14:58:03;;;;;;;7.22;3.45;;;;;;;;;;5206321;28;20045;-32
2022/02/07 15:00:36;;;;;;;12.00;3.90;;;3.20;99.90;;;;;;5204861;28;20061;-39
2022/02/07 15:03:11;;;;;;;10.20;3.80;;;;;;;;;;5175682;28;20060;-32
2022/02/07 15:05:44;;;;;;;8.05;3.28;;;;;;;;;;5207673;28;20048;-32
2022/02/07 15:08:17;;;;;;;11.63;3.47;;;;;;;;;;5209790;28;20552;-32
2022/02/07 15:10:50;;;;;;;9.30;3.23;;;;;;;;;;5214312;28;20068;-32
2022/02/07 15:13:24;;;;;;;8.57;3.53;;;;;;;;;;5183877;28;20515;-33
2022/02/07 15:15:57;;;;;;;10.90;3.63;;;;;;;;;;5212390;28;20052;-32
2022/02/07 15:18:30;;;;;;;5.40;2.83;;;;;;;;;;5190875;28;20085;-31
2022/02/07 15:21:05;;;;;;;10.02;3.65;;;;;;;;;;4854410;28;10000612;-31
2022/02/07 15:23:38;;;;;;;10.73;3.50;;;;;;;;;;5203680;28;20963;-31
2022/02/07 15:26:11;;;;;;;;;;;3.50;99.90;;;;;;5210510;28;20071;-30
2022/02/07 15:28:47;;;;;;;9.77;3.05;;;;;;;;;;5190967;28;19925;-31
2022/02/07 15:31:23;;;;;;;9.60;3.10;;;;;;;;;;5193072;28;20049;-31
2022/02/07 15:33:56;;;;;;;15.02;3.80;;;;;;;;;;5206702;28;20044;-32
2022/02/07 15:36:29;;;;;;;13.07;4.10;;;;;;;;;;5209947;28;20049;-32
2022/02/07 15:39:03;;;;;;;16.10;4.05;;;3.20;99.90;;;;;;5210734;28;20056;-31
2022/02/07 15:41:36;;;;;;;10.02;3.22;;;;;;;;;;5216003;28;20055;-31
2022/02/07 15:44:12;;;;;;;9.70;3.70;;;3.20;99.90;;;;;;5211672;28;20056;-31
2022/02/07 15:46:45;;;;;;;12.70;3.33;;;;;;;;;;5213445;28;20307;-32
2022/02/07 15:49:20;;;;;;;10.43;3.83;;;;;;;;;;5203785;28;20377;-31
2022/02/07 15:51:53;;;;;;;9.02;3.58;;;;;;;;;;5204233;28;20055;-32
2022/02/07 15:54:27;;;;;;;9.20;3.10;;;;;;;;;;5210220;28;21416;-32
2022/02/07 15:57:01;;;;;;;9.32;3.47;;;;;;;;;;5212920;28;20052;-31
2022/02/07 15:59:36;;;;;;;12.30;4.88;;;;;;;;;;5204278;28;20285;-31
2022/02/07 16:02:10;;;;;;;7.40;3.20;;;;;;;;;;5214793;28;20052;-31
2022/02/07 16:04:42;;;;;;;10.65;3.65;;;;;;;;;;5210855;28;20048;-31
2022/02/07 16:07:15;;;;;;;11.52;3.47;;;;;;;;;;5211173;28;20056;-31
2022/02/07 16:09:48;;;;;;;11.75;2.92;;;;;;;;;;5187292;28;20057;-31
2022/02/07 16:12:21;;;;;;;12.47;3.23;;;;;;;;;;5207633;28;20056;-32
2022/02/07 16:14:54;;;;;;;15.65;3.60;;;;;;;;;;5214102;28;20044;-31
2022/02/07 16:17:26;;;;;;;11.68;3.30;;;;;;;;;;5206189;28;20055;-32
2022/02/07 16:19:59;;;;;;;13.10;3.17;;;;;;;;;;5186223;28;20668;-31
2022/02/07 16:22:32;;;;;;;8.27;3.70;;;;;;;;;;5201334;28;20051;-31
2022/02/07 16:25:05;;;;;;;10.10;3.10;;;;;;;;;;5198986;28;20501;-31
2022/02/07 16:27:38;;;;;;;11.23;3.80;;;;;;;;;;5204688;28;20489;-32
2022/02/07 16:30:11;;;;;;;7.35;3.28;;;;;;;;;;5210672;28;20623;-31
2022/02/07 16:32:47;;;;;;;;;;;3.30;99.90;;;;;;5186863;28;20661;-32
2022/02/07 16:35:19;;;;;;;;;;;3.30;99.90;;;;;;5210223;28;19924;-31
2022/02/07 16:37:52;;;;;;;14.18;2.55;;;;;;;;;;5206644;28;19924;-32
2022/02/07 16:40:27;;;;;;;12.20;2.88;;;;;;;;;;5182939;28;20413;-31
2022/02/07 16:42:59;;;;;;;10.93;3.25;;;;;;;;;;5207530;28;20041;-32
2022/02/07 16:48:18;;;;;;;11.55;4.40;;;3.30;99.90;;;;;;5191387;28;20052;-32
2022/02/07 16:50:51;;;;;;;13.35;4.03;;;;;;;;;;5209315;28;20531;-32
2022/02/07 16:53:24;;;;;;;10.45;3.85;;;;;;;;;;5207113;28;20052;-32
2022/02/07 16:55:57;;;;;;;11.10;4.15;;;;;;;;;;5212342;28;20595;-32
2022/02/07 16:58:55;;;;;;;8.32;4.28;;;;;;;;;;5203718;28;20762;-30
2022/02/07 17:01:28;;;;;;;16.03;5.33;;;;;;;;;;5209193;28;20040;-32
2022/02/07 17:04:01;;;;;;;12.93;3.85;;;;;;;;;;5201437;28;20290;-31
2022/02/07 17:06:34;;;;;;;12.07;4.00;;;;;;;;;;5195763;28;20051;-31
2022/02/07 17:09:07;;;;;;;8.23;4.00;;;;;;;;;;5207077;28;20041;-32
2022/02/07 17:11:40;;;;;;;10.63;4.88;;;3.30;99.90;;;;;;5208096;28;20488;-32
2022/02/07 17:14:13;;;;;;;10.40;3.15;;;3.20;99.90;;;;;;5209015;28;20060;-31